Time;durP1;ratioP1;P1;durP2;ratioP2;P2;SDS_P1;SDS_P2;PMS_P1;PMS_P2;Temp;Humidity;BMP_temperature;BMP_pressure;BME280_temperature;BME280_humidity;BME280_pressure;Samples;Min_cycle;Max_cycle;Signal;HPM_P1;HPM_P2
2023/04/10 00:02:20;;;;;;;15.90;10.47;;;5.20;30.10;;;;;;5081860;28;20862;-63
2023/04/10 00:04:46;;;;;;;18.30;11.53;;;5.20;29.80;;;;;;5078195;28;20464;-63
2023/04/10 00:07:14;;;;;;;16.80;11.23;;;5.20;29.80;;;;;;5079790;28;20473;-63
2023/04/10 00:09:42;;;;;;;22.70;11.40;;;5.20;30.10;;;;;;5080551;28;20456;-63
2023/04/10 00:12:10;;;;;;;18.23;11.40;;;5.20;30.20;;;;;;5072311;28;20582;-63
2023/04/10 00:14:36;;;;;;;19.13;11.80;;;5.10;30.20;;;;;;5074302;28;20456;-63
2023/04/10 00:17:03;;;;;;;19.27;12.20;;;5.10;30.50;;;;;;5080515;28;24262;-63
2023/04/10 00:19:30;;;;;;;20.43;12.60;;;5.00;30.10;;;;;;5083673;28;20467;-62
2023/04/10 00:21:57;;;;;;;19.27;11.90;;;5.00;30.20;;;;;;5076308;28;20485;-63
2023/04/10 00:24:24;;;;;;;20.80;13.97;;;5.10;30.10;;;;;;5077454;28;20468;-63
2023/04/10 00:26:52;;;;;;;19.50;13.33;;;5.00;30.30;;;;;;5076221;28;20836;-63
2023/04/10 00:29:19;;;;;;;18.47;11.60;;;5.00;30.40;;;;;;5078868;28;20468;-63
2023/04/10 00:31:45;;;;;;;17.37;11.90;;;5.00;30.40;;;;;;5070044;28;20481;-63
2023/04/10 00:34:12;;;;;;;16.67;11.00;;;5.00;30.10;;;;;;5080502;28;20468;-63
2023/04/10 00:36:39;;;;;;;19.90;13.10;;;5.00;30.50;;;;;;5076178;28;20518;-63
2023/04/10 00:39:07;;;;;;;17.90;12.07;;;5.00;30.10;;;;;;5081532;28;20460;-62
2023/04/10 00:41:34;;;;;;;19.10;10.87;;;5.10;29.60;;;;;;5078637;28;20480;-63
2023/04/10 00:44:02;;;;;;;17.87;11.00;;;5.00;30.20;;;;;;5078691;28;20558;-63
2023/04/10 00:46:30;;;;;;;17.27;10.90;;;5.10;30.00;;;;;;5081387;28;20824;-63
2023/04/10 00:48:57;;;;;;;21.67;14.00;;;5.10;29.80;;;;;;5080141;28;20610;-63
2023/04/10 00:51:25;;;;;;;18.03;11.60;;;5.10;29.20;;;;;;5076891;28;20484;-63
2023/04/10 00:53:53;;;;;;;20.60;13.40;;;5.10;28.90;;;;;;5081726;28;20498;-63
2023/04/10 00:56:20;;;;;;;18.00;11.17;;;5.20;28.70;;;;;;5076335;28;20476;-62
2023/04/10 00:58:47;;;;;;;16.10;11.13;;;5.20;28.50;;;;;;5075751;28;20487;-63
2023/04/10 01:01:15;;;;;;;20.47;12.50;;;5.20;28.20;;;;;;5082840;28;20475;-62
2023/04/10 01:03:43;;;;;;;17.50;11.20;;;5.20;28.10;;;;;;5080929;28;20543;-63
2023/04/10 01:06:17;;;;;;;17.93;11.77;;;5.20;27.90;;;;;;5080256;28;20467;-62
2023/04/10 01:08:52;;;;;;;18.80;12.13;;;5.20;27.80;;;;;;5083344;28;21031;-63
2023/04/10 01:11:26;;;;;;;18.60;11.60;;;5.20;27.60;;;;;;5077250;28;21045;-62
2023/04/10 01:14:00;;;;;;;19.50;13.13;;;5.20;27.60;;;;;;5083580;28;20458;-62
2023/04/10 01:16:34;;;;;;;15.97;10.50;;;5.20;27.40;;;;;;5082165;28;20960;-63
2023/04/10 01:19:09;;;;;;;20.90;11.83;;;5.10;27.40;;;;;;5083430;28;20545;-62
2023/04/10 01:21:38;;;;;;;19.10;12.03;;;5.10;27.30;;;;;;5080374;28;20483;-62
2023/04/10 01:24:21;;;;;;;19.93;12.77;;;5.10;27.20;;;;;;5083567;28;20473;-63
2023/04/10 01:27:03;;;;;;;18.27;12.30;;;5.00;27.40;;;;;;5083731;28;20490;-63
2023/04/10 01:29:33;;;;;;;18.03;12.00;;;5.00;27.50;;;;;;5085847;28;21081;-63
2023/04/10 01:32:03;;;;;;;19.10;12.60;;;4.90;27.50;;;;;;5081959;28;20958;-62
2023/04/10 01:34:42;;;;;;;21.13;13.13;;;4.80;27.90;;;;;;5079349;28;20471;-63
2023/04/10 01:37:15;;;;;;;20.80;14.13;;;4.70;28.20;;;;;;5086953;28;20467;-62
2023/04/10 01:39:43;;;;;;;23.20;14.40;;;4.80;28.10;;;;;;5078769;28;20475;-62
2023/04/10 01:42:14;;;;;;;21.20;14.00;;;4.70;28.20;;;;;;5085145;28;20511;-62
2023/04/10 01:44:44;;;;;;;24.47;15.10;;;4.70;28.60;;;;;;5081914;28;20460;-62
2023/04/10 01:47:14;;;;;;;22.43;14.83;;;4.60;28.90;;;;;;5081610;28;20456;-63
2023/04/10 01:49:43;;;;;;;23.00;14.97;;;4.50;28.90;;;;;;5080451;28;20465;-62
2023/04/10 01:52:11;;;;;;;25.73;16.77;;;4.50;29.00;;;;;;5078330;28;20484;-63
2023/04/10 01:54:39;;;;;;;27.33;16.80;;;4.50;29.40;;;;;;5082722;28;20499;-63
2023/04/10 01:57:06;;;;;;;25.53;16.50;;;4.50;29.60;;;;;;5079594;28;20542;-62
2023/04/10 01:59:32;;;;;;;26.80;16.10;;;4.40;29.50;;;;;;5083498;28;20547;-63
2023/04/10 02:02:01;;;;;;;25.53;16.60;;;4.40;29.70;;;;;;5080233;28;20486;-62
2023/04/10 02:04:28;;;;;;;27.50;17.40;;;4.40;29.80;;;;;;5080653;28;20468;-62
2023/04/10 02:07:02;;;;;;;25.73;16.97;;;4.40;29.70;;;;;;5077920;28;20469;-63
2023/04/10 02:09:40;;;;;;;24.97;17.20;;;4.40;29.80;;;;;;5081917;28;20547;-62
2023/04/10 02:12:13;;;;;;;27.27;17.17;;;4.40;30.10;;;;;;5078250;28;20504;-63
2023/04/10 02:14:43;;;;;;;27.43;17.00;;;4.30;30.30;;;;;;5081257;28;20471;-63
2023/04/10 02:17:18;;;;;;;25.63;16.40;;;4.30;30.30;;;;;;5082172;28;20474;-62
2023/04/10 02:19:48;;;;;;;23.70;15.60;;;4.20;30.20;;;;;;5083035;28;20462;-62
2023/04/10 02:22:15;;;;;;;27.43;17.67;;;4.20;30.30;;;;;;5079907;28;20488;-62
2023/04/10 02:24:42;;;;;;;26.90;15.90;;;4.10;30.50;;;;;;5077917;28;20500;-62
2023/04/10 02:27:09;;;;;;;26.07;16.50;;;4.10;30.60;;;;;;5078848;28;20546;-62
2023/04/10 02:29:36;;;;;;;26.63;15.93;;;4.10;30.70;;;;;;5082074;28;20985;-63
2023/04/10 02:32:03;;;;;;;25.77;17.30;;;4.00;30.90;;;;;;5079168;28;20480;-62
2023/04/10 02:34:31;;;;;;;27.03;17.30;;;4.00;30.80;;;;;;5084401;28;20468;-63
2023/04/10 02:36:58;;;;;;;28.37;17.20;;;4.00;30.90;;;;;;5078167;28;20461;-62
2023/04/10 02:39:25;;;;;;;26.20;17.13;;;4.00;31.10;;;;;;5085260;28;20468;-62
2023/04/10 02:41:51;;;;;;;27.30;17.70;;;4.00;31.30;;;;;;5075169;28;20599;-62
2023/04/10 02:44:18;;;;;;;25.43;17.37;;;4.00;31.30;;;;;;5077550;28;20472;-63
2023/04/10 02:46:45;;;;;;;25.60;17.27;;;4.10;31.60;;;;;;5078834;28;20464;-63
2023/04/10 02:49:12;;;;;;;26.90;17.87;;;4.10;31.60;;;;;;5078104;28;20469;-62
2023/04/10 02:51:40;;;;;;;27.13;17.70;;;4.00;31.50;;;;;;5081693;28;20508;-63
2023/04/10 02:54:07;;;;;;;29.70;20.37;;;4.00;31.70;;;;;;5077163;28;20469;-63
2023/04/10 02:56:34;;;;;;;26.80;18.20;;;4.00;31.70;;;;;;5084142;28;20464;-62
2023/04/10 02:59:01;;;;;;;29.00;18.83;;;3.90;31.90;;;;;;5080200;28;20514;-63
2023/04/10 03:01:28;;;;;;;25.33;16.43;;;3.90;32.20;;;;;;5082019;28;20883;-63
2023/04/10 03:03:54;;;;;;;30.80;19.50;;;3.90;32.40;;;;;;5081166;28;20472;-63
2023/04/10 03:06:24;;;;;;;30.43;19.50;;;3.90;32.60;;;;;;5083977;28;20555;-62
2023/04/10 03:08:53;;;;;;;27.43;18.80;;;3.90;32.40;;;;;;5078445;28;21074;-62
2023/04/10 03:11:19;;;;;;;29.63;17.40;;;3.90;32.40;;;;;;5081064;28;20479;-63
2023/04/10 03:13:47;;;;;;;28.77;17.70;;;3.90;32.40;;;;;;5083409;28;20467;-62
2023/04/10 03:16:14;;;;;;;28.70;18.60;;;3.90;32.60;;;;;;5081295;28;20460;-65
2023/04/10 03:18:41;;;;;;;29.43;18.20;;;3.90;32.70;;;;;;5087629;28;20547;-64
2023/04/10 03:21:08;;;;;;;27.27;17.07;;;3.80;32.70;;;;;;5080567;28;20562;-64
2023/04/10 03:23:35;;;;;;;28.80;17.73;;;3.80;32.80;;;;;;5080719;28;20477;-65
2023/04/10 03:26:04;;;;;;;32.80;20.20;;;3.80;33.20;;;;;;5077227;28;21018;-64
2023/04/10 03:28:31;;;;;;;29.23;17.27;;;3.80;32.50;;;;;;5083330;28;20525;-64
2023/04/10 03:30:58;;;;;;;29.97;18.93;;;3.80;32.40;;;;;;5081236;28;20468;-64
2023/04/10 03:33:25;;;;;;;24.40;17.17;;;3.70;32.80;;;;;;5082883;28;20464;-65
2023/04/10 03:35:52;;;;;;;29.40;19.30;;;3.60;32.50;;;;;;5083655;28;20460;-64
2023/04/10 03:38:19;;;;;;;25.80;16.80;;;3.70;32.60;;;;;;5082832;28;20472;-65
2023/04/10 03:43:25;;;;;;;28.67;18.07;;;3.60;32.60;;;;;;5056670;28;20476;-62
2023/04/10 03:45:52;;;;;;;29.90;18.67;;;3.60;32.60;;;;;;5063075;28;20462;-61
2023/04/10 03:48:19;;;;;;;28.63;18.80;;;3.50;32.80;;;;;;5066499;28;20472;-61
2023/04/10 03:50:46;;;;;;;29.63;17.93;;;3.50;33.00;;;;;;5057282;28;20469;-61
2023/04/10 03:53:12;;;;;;;32.00;19.83;;;3.50;33.20;;;;;;5055568;28;21019;-61
2023/04/10 03:55:39;;;;;;;27.47;17.23;;;3.50;33.00;;;;;;5066489;28;20468;-61
2023/04/10 03:58:07;;;;;;;27.27;18.70;;;3.50;33.10;;;;;;5066684;28;20493;-62
2023/04/10 04:00:35;;;;;;;32.97;17.50;;;3.50;33.10;;;;;;5061144;28;22347;-61
2023/04/10 04:03:03;;;;;;;26.67;17.93;;;3.50;33.10;;;;;;5079678;28;20565;-61
2023/04/10 04:05:30;;;;;;;29.33;18.20;;;3.40;33.10;;;;;;5086054;28;20464;-61
2023/04/10 04:07:57;;;;;;;26.50;19.10;;;3.40;33.30;;;;;;5085248;28;20460;-61
2023/04/10 04:10:24;;;;;;;28.07;17.27;;;3.40;33.10;;;;;;5080931;28;20973;-61
2023/04/10 04:12:50;;;;;;;30.73;18.90;;;3.40;33.10;;;;;;5075008;28;20480;-61
2023/04/10 04:15:17;;;;;;;30.03;18.70;;;3.40;33.00;;;;;;5090795;28;20481;-61
2023/04/10 04:17:46;;;;;;;31.30;19.63;;;3.40;33.10;;;;;;5083113;28;21138;-61
2023/04/10 04:20:13;;;;;;;29.23;18.13;;;3.40;33.10;;;;;;5083465;28;20471;-61
2023/04/10 04:22:40;;;;;;;30.77;19.77;;;3.40;33.00;;;;;;5079785;28;21221;-61
2023/04/10 04:25:10;;;;;;;30.00;19.00;;;3.30;33.20;;;;;;5088858;28;20470;-61
2023/04/10 04:27:36;;;;;;;29.40;17.50;;;3.30;33.30;;;;;;5082376;28;20543;-61
2023/04/10 04:30:04;;;;;;;27.47;19.37;;;3.30;33.30;;;;;;5084599;28;20863;-61
2023/04/10 04:32:31;;;;;;;29.10;18.67;;;3.30;33.40;;;;;;5060671;28;20496;-62
2023/04/10 04:34:59;;;;;;;25.43;17.57;;;3.20;33.50;;;;;;5067149;28;20465;-62
2023/04/10 04:37:26;;;;;;;31.80;19.63;;;3.20;33.60;;;;;;5058537;28;20474;-62
2023/04/10 04:39:53;;;;;;;31.80;19.30;;;3.20;33.30;;;;;;5066819;28;20468;-62
2023/04/10 04:42:19;;;;;;;28.93;18.10;;;3.20;33.30;;;;;;5059725;28;20481;-62
2023/04/10 04:44:46;;;;;;;30.10;20.50;;;3.20;33.40;;;;;;5065200;28;20465;-61
2023/04/10 04:47:13;;;;;;;29.20;18.33;;;3.20;33.70;;;;;;5062129;28;20462;-61
2023/04/10 04:49:39;;;;;;;30.00;18.97;;;3.20;33.90;;;;;;5064585;28;20465;-62
2023/04/10 04:52:08;;;;;;;28.80;18.30;;;3.20;34.10;;;;;;5055883;28;20508;-61
2023/04/10 04:54:34;;;;;;;30.57;19.80;;;3.20;34.00;;;;;;5061325;28;20457;-61
2023/04/10 04:57:01;;;;;;;33.20;19.10;;;3.30;34.40;;;;;;5069638;28;20465;-61
2023/04/10 04:59:28;;;;;;;30.13;18.40;;;3.30;34.80;;;;;;5061429;28;20476;-61
2023/04/10 05:01:55;;;;;;;28.10;18.77;;;3.40;35.50;;;;;;5067803;28;20480;-61
2023/04/10 05:04:22;;;;;;;30.23;20.07;;;3.60;35.80;;;;;;5064491;28;20509;-62
2023/04/10 05:06:48;;;;;;;29.23;18.70;;;3.70;36.10;;;;;;5069945;28;20464;-61
2023/04/10 05:09:16;;;;;;;28.70;17.73;;;3.90;35.60;;;;;;5067396;28;20496;-62
2023/04/10 05:11:43;;;;;;;27.50;18.03;;;4.30;34.40;;;;;;5063726;28;20504;-61
2023/04/10 05:14:10;;;;;;;26.90;18.00;;;4.60;33.50;;;;;;5059775;28;20470;-62
2023/04/10 05:16:36;;;;;;;31.63;18.33;;;5.20;32.50;;;;;;5065602;28;20460;-61
2023/04/10 05:19:03;;;;;;;24.37;16.83;;;6.00;30.90;;;;;;5069416;28;20483;-61
2023/04/10 05:21:30;;;;;;;24.30;15.93;;;6.60;29.10;;;;;;5066332;28;20481;-61
2023/04/10 05:23:57;;;;;;;21.07;14.40;;;7.10;25.70;;;;;;5062442;28;20822;-61
2023/04/10 05:26:25;;;;;;;23.63;16.00;;;7.40;25.20;;;;;;5064440;28;20465;-62
2023/04/10 05:28:51;;;;;;;23.53;16.43;;;7.70;24.50;;;;;;5069750;28;20461;-62
2023/04/10 05:31:18;;;;;;;22.97;15.77;;;8.00;23.40;;;;;;5057127;28;20473;-62
2023/04/10 05:33:45;;;;;;;19.87;14.23;;;8.40;22.10;;;;;;5065591;28;20948;-62
2023/04/10 05:36:13;;;;;;;20.97;14.60;;;8.60;22.10;;;;;;5072647;28;20469;-62
2023/04/10 05:38:39;;;;;;;22.40;15.10;;;8.90;21.40;;;;;;5067940;28;20465;-61
2023/04/10 05:41:06;;;;;;;21.63;14.47;;;9.00;21.20;;;;;;5064048;28;20461;-62
2023/04/10 05:43:35;;;;;;;19.40;14.20;;;9.10;20.60;;;;;;5061305;28;20477;-62
2023/04/10 05:46:02;;;;;;;19.80;13.57;;;9.20;19.30;;;;;;5064513;28;20493;-62
2023/04/10 05:48:28;;;;;;;19.30;14.33;;;9.50;19.10;;;;;;5065931;28;20476;-62
2023/04/10 05:50:55;;;;;;;20.97;15.00;;;9.80;18.00;;;;;;5072940;28;20849;-62
2023/04/10 05:53:24;;;;;;;20.07;13.97;;;10.40;17.00;;;;;;5071233;28;20516;-66
2023/04/10 05:55:51;;;;;;;19.80;14.27;;;10.70;15.80;;;;;;5077969;28;20488;-62
2023/04/10 05:58:17;;;;;;;20.27;14.43;;;11.00;14.90;;;;;;5073068;28;21041;-62
2023/04/10 06:00:45;;;;;;;18.83;12.90;;;11.40;14.10;;;;;;5063363;28;20465;-62
2023/04/10 06:03:12;;;;;;;23.00;14.87;;;11.80;13.00;;;;;;5068037;28;20485;-62
2023/04/10 06:05:40;;;;;;;18.33;13.80;;;12.60;11.90;;;;;;5072299;28;20464;-62
2023/04/10 06:08:06;;;;;;;17.63;13.33;;;13.70;10.00;;;;;;5054410;28;20968;-62
2023/04/10 06:10:33;;;;;;;18.00;14.40;;;14.50;8.30;;;;;;5075520;28;20465;-62
2023/04/10 06:13:00;;;;;;;19.00;14.30;;;15.30;6.60;;;;;;5065472;28;20483;-62
2023/04/10 06:15:27;;;;;;;19.63;13.30;;;16.50;4.60;;;;;;5068896;28;20464;-62
2023/04/10 06:17:55;;;;;;;18.73;14.73;;;17.90;2.50;;;;;;5074855;28;20460;-62
2023/04/10 06:20:22;;;;;;;17.57;14.13;;;19.30;1.00;;;;;;5074353;28;21226;-62
2023/04/10 06:22:49;;;;;;;16.90;13.30;;;20.10;1.00;;;;;;5059527;28;20481;-62
2023/04/10 06:25:16;;;;;;;16.53;13.20;;;20.50;1.00;;;;;;5067279;28;20468;-62
2023/04/10 06:27:42;;;;;;;15.77;12.80;;;21.00;1.00;;;;;;5068205;28;20465;-63
2023/04/10 06:30:10;;;;;;;14.37;12.40;;;21.70;1.00;;;;;;5054781;28;20469;-64
2023/04/10 06:32:37;;;;;;;14.40;11.80;;;22.60;1.00;;;;;;5067959;28;20473;-62
2023/04/10 06:35:07;;;;;;;14.70;12.83;;;23.50;1.00;;;;;;5072965;28;20465;-62
2023/04/10 06:37:34;;;;;;;15.30;12.47;;;24.20;1.00;;;;;;5069483;28;20463;-62
2023/04/10 06:40:04;;;;;;;13.40;11.83;;;25.00;1.00;;;;;;5070892;28;21308;-62
2023/04/10 06:42:30;;;;;;;12.77;11.13;;;25.80;1.00;;;;;;5065814;28;20488;-63
2023/04/10 06:44:57;;;;;;;14.83;12.90;;;26.80;1.00;;;;;;5065625;28;20479;-63
2023/04/10 06:47:24;;;;;;;12.93;11.43;;;27.40;1.00;;;;;;5064511;28;20464;-62
2023/04/10 06:49:51;;;;;;;12.73;11.30;;;27.60;1.00;;;;;;5066034;28;20465;-62
2023/04/10 06:52:19;;;;;;;12.23;10.93;;;28.10;1.00;;;;;;5065194;28;20476;-62
2023/04/10 06:54:45;;;;;;;13.40;11.80;;;29.00;1.00;;;;;;5066571;28;21011;-62
2023/04/10 06:57:12;;;;;;;13.37;11.60;;;30.10;1.00;;;;;;5058634;28;20465;-62
2023/04/10 06:59:39;;;;;;;13.10;11.70;;;31.10;1.00;;;;;;5067343;28;20829;-62
2023/04/10 07:02:06;;;;;;;12.87;11.53;;;31.60;1.00;;;;;;5060492;28;20473;-62
2023/04/10 07:04:33;;;;;;;12.40;11.20;;;32.00;1.00;;;;;;5063484;28;20559;-62
2023/04/10 07:07:00;;;;;;;11.53;10.43;;;32.70;1.00;;;;;;5062296;28;21019;-62
2023/04/10 07:09:28;;;;;;;13.93;11.83;;;33.40;1.00;;;;;;5057214;28;20484;-63
2023/04/10 07:11:55;;;;;;;11.60;10.40;;;34.10;1.00;;;;;;5067910;28;20476;-62
2023/04/10 07:14:22;;;;;;;11.17;10.07;;;34.80;1.00;;;;;;5065583;28;20453;-63
2023/04/10 07:16:50;;;;;;;11.80;10.60;;;35.30;1.00;;;;;;5058611;28;20980;-63
2023/04/10 07:19:17;;;;;;;10.13;9.13;;;36.00;1.00;;;;;;5056920;28;20465;-64
2023/04/10 07:21:43;;;;;;;10.03;9.03;;;36.60;1.00;;;;;;5061548;28;20481;-64
2023/04/10 07:24:10;;;;;;;8.77;7.87;;;36.60;1.00;;;;;;5057564;28;20465;-64
2023/04/10 07:26:38;;;;;;;8.87;7.97;;;36.20;1.00;;;;;;5056064;28;20460;-64
2023/04/10 07:29:05;;;;;;;9.53;7.50;;;35.70;1.00;;;;;;5050461;28;20468;-63
2023/04/10 07:31:31;;;;;;;8.90;7.30;;;34.80;1.00;;;;;;5054991;28;20483;-64
2023/04/10 07:33:58;;;;;;;9.03;7.80;;;34.40;1.00;;;;;;5064836;28;20472;-64
2023/04/10 07:36:25;;;;;;;8.33;7.37;;;34.40;1.00;;;;;;5060376;28;20484;-63
2023/04/10 07:38:52;;;;;;;8.30;7.30;;;34.20;1.00;;;;;;5064926;28;20465;-64
2023/04/10 07:41:19;;;;;;;7.47;6.67;;;34.20;1.00;;;;;;5041873;28;20500;-67
2023/04/10 07:43:47;;;;;;;9.40;7.53;;;33.80;1.00;;;;;;5055595;28;20541;-63
2023/04/10 07:46:15;;;;;;;8.50;6.53;;;33.40;1.00;;;;;;5054200;28;20488;-66
2023/04/10 07:48:42;;;;;;;7.53;6.53;;;33.10;1.00;;;;;;5066360;28;21052;-64
2023/04/10 07:51:08;;;;;;;8.30;6.27;;;31.60;1.00;;;;;;5070322;28;20461;-64
2023/04/10 07:53:35;;;;;;;8.50;6.87;;;30.20;1.00;;;;;;5058812;28;20511;-63
2023/04/10 07:56:02;;;;;;;8.13;6.40;;;29.60;1.00;;;;;;5052461;28;20491;-64
2023/04/10 07:58:29;;;;;;;8.73;6.83;;;28.50;1.00;;;;;;5056374;28;20468;-63
2023/04/10 08:00:58;;;;;;;8.67;7.30;;;27.90;1.00;;;;;;5046290;28;20473;-63
2023/04/10 08:03:24;;;;;;;8.50;6.77;;;27.30;1.00;;;;;;5051863;28;20485;-65
2023/04/10 08:05:51;;;;;;;9.67;7.20;;;27.10;1.00;;;;;;5065423;28;20461;-63
2023/04/10 08:08:18;;;;;;;8.70;6.70;;;27.00;1.00;;;;;;5059096;28;20489;-64
2023/04/10 08:10:45;;;;;;;8.40;6.97;;;27.30;1.00;;;;;;5059052;28;20471;-63
2023/04/10 08:13:15;;;;;;;8.63;6.80;;;27.90;1.00;;;;;;5059292;28;20580;-66
2023/04/10 08:15:41;;;;;;;8.33;6.00;;;28.20;1.00;;;;;;5053115;28;20514;-66
2023/04/10 08:18:09;;;;;;;7.60;5.43;;;28.60;1.00;;;;;;5059901;28;20461;-63
2023/04/10 08:20:36;;;;;;;7.40;5.73;;;29.20;1.00;;;;;;5064926;28;20466;-62
2023/04/10 08:23:03;;;;;;;8.97;7.17;;;30.30;1.00;;;;;;5060710;28;20481;-67
2023/04/10 08:25:31;;;;;;;7.50;6.10;;;31.40;1.00;;;;;;5059426;28;20505;-66
2023/04/10 08:27:59;;;;;;;7.50;5.67;;;31.10;1.00;;;;;;5058739;28;20491;-66
2023/04/10 08:30:26;;;;;;;8.27;6.90;;;31.30;1.00;;;;;;5061389;28;20465;-66
2023/04/10 08:32:52;;;;;;;8.83;6.00;;;31.60;1.00;;;;;;5058190;28;20480;-63
2023/04/10 08:35:21;;;;;;;7.83;5.43;;;32.00;1.00;;;;;;5065636;28;20466;-64
2023/04/10 08:37:47;;;;;;;7.47;6.00;;;32.10;1.00;;;;;;5056769;28;20961;-63
2023/04/10 08:40:14;;;;;;;7.30;5.90;;;32.40;1.00;;;;;;5061085;28;20742;-63
2023/04/10 08:42:41;;;;;;;7.20;5.53;;;32.20;1.00;;;;;;5052500;28;20765;-63
2023/04/10 08:45:09;;;;;;;7.47;6.00;;;31.30;1.00;;;;;;5062556;28;20469;-63
2023/04/10 08:47:37;;;;;;;7.23;5.40;;;30.20;1.00;;;;;;5050774;28;20481;-63
2023/04/10 08:50:07;;;;;;;7.77;6.00;;;30.00;1.00;;;;;;5063481;28;20897;-63
2023/04/10 08:52:40;;;;;;;6.80;5.00;;;30.00;1.00;;;;;;5068030;28;20506;-63
2023/04/10 08:55:09;;;;;;;7.50;5.50;;;30.10;1.00;;;;;;5061328;28;20464;-63
2023/04/10 08:57:37;;;;;;;7.03;4.97;;;30.70;1.00;;;;;;5056031;28;20474;-63
2023/04/10 09:00:05;;;;;;;6.90;5.03;;;31.10;1.00;;;;;;5060262;28;20886;-62
2023/04/10 09:02:32;;;;;;;7.20;5.57;;;31.50;1.00;;;;;;5060706;28;21035;-63
2023/04/10 09:05:03;;;;;;;7.37;5.30;;;32.10;1.00;;;;;;5058010;28;20469;-64
2023/04/10 09:07:29;;;;;;;6.23;4.80;;;32.80;1.00;;;;;;5064261;28;20469;-63
2023/04/10 09:09:58;;;;;;;6.43;4.93;;;33.30;1.00;;;;;;5069451;28;20972;-62
2023/04/10 09:12:24;;;;;;;6.53;4.90;;;34.20;1.00;;;;;;5063687;28;20484;-62
2023/04/10 09:14:52;;;;;;;6.57;4.40;;;35.10;1.00;;;;;;5059815;28;20870;-63
2023/04/10 09:17:23;;;;;;;6.30;4.43;;;36.00;1.00;;;;;;5063136;28;21039;-63
2023/04/10 09:19:51;;;;;;;6.53;4.37;;;37.10;1.00;;;;;;5064515;28;20466;-63
2023/04/10 09:22:18;;;;;;;5.97;4.50;;;36.80;1.00;;;;;;5068828;28;20489;-63
2023/04/10 09:24:47;;;;;;;5.60;4.30;;;35.80;1.00;;;;;;5070564;28;20476;-63
2023/04/10 09:27:31;;;;;;;6.20;4.70;;;36.10;1.00;;;;;;5064394;28;20487;-63
2023/04/10 09:29:58;;;;;;;6.60;4.93;;;36.90;1.00;;;;;;5065263;28;20517;-63
2023/04/10 09:32:46;;;;;;;5.73;4.47;;;38.00;1.00;;;;;;5073940;28;20488;-63
2023/04/10 09:35:14;;;;;;;6.13;4.77;;;38.20;1.00;;;;;;5062993;28;20497;-63
2023/04/10 09:37:44;;;;;;;5.73;4.60;;;38.00;1.00;;;;;;5071471;28;20548;-62
2023/04/10 09:40:21;;;;;;;6.50;4.87;;;38.60;1.00;;;;;;5064955;28;20464;-61
2023/04/10 09:42:51;;;;;;;5.63;4.47;;;37.60;1.00;;;;;;5068209;28;20488;-63
2023/04/10 09:45:21;;;;;;;6.30;4.83;;;37.30;1.00;;;;;;5065985;28;20950;-65
2023/04/10 09:48:02;;;;;;;6.17;4.60;;;36.50;1.00;;;;;;5073045;22;20453;-65
2023/04/10 09:50:35;;;;;;;5.93;4.47;;;35.40;1.00;;;;;;5056578;28;20468;-62
2023/04/10 09:53:01;;;;;;;6.97;4.80;;;34.80;1.00;;;;;;5058594;28;20576;-64
2023/04/10 09:55:28;;;;;;;5.93;4.30;;;35.10;1.00;;;;;;5061889;28;20468;-64
2023/04/10 09:57:58;;;;;;;7.47;5.73;;;35.40;1.00;;;;;;5062790;28;20461;-62
2023/04/10 10:00:26;;;;;;;6.23;4.50;;;34.70;1.00;;;;;;5062939;28;20465;-62
2023/04/10 10:02:55;;;;;;;5.27;3.57;;;35.40;1.00;;;;;;5075626;28;20476;-64
2023/04/10 10:05:26;;;;;;;5.30;3.67;;;35.20;1.00;;;;;;5085293;28;20471;-63
2023/04/10 10:07:54;;;;;;;6.03;4.43;;;34.80;1.00;;;;;;5075408;28;20495;-65
2023/04/10 10:10:21;;;;;;;5.40;3.87;;;34.70;1.00;;;;;;5069584;28;20481;-65
2023/04/10 10:12:51;;;;;;;5.37;3.53;;;34.00;1.00;;;;;;5076319;28;20491;-64
2023/04/10 10:15:28;;;;;;;5.73;4.23;;;32.50;1.00;;;;;;5077125;28;20463;-63
2023/04/10 10:18:03;;;;;;;5.10;3.40;;;32.20;1.00;;;;;;5084904;28;20478;-64
2023/04/10 10:20:32;;;;;;;6.63;4.33;;;31.90;1.00;;;;;;5074298;28;20468;-64
2023/04/10 10:23:02;;;;;;;5.40;3.73;;;31.70;1.00;;;;;;5077811;28;21026;-64
2023/04/10 10:25:29;;;;;;;5.87;4.00;;;31.60;1.00;;;;;;5074445;28;20468;-64
2023/04/10 10:27:59;;;;;;;5.50;3.30;;;31.10;1.00;;;;;;5080977;28;21309;-64
2023/04/10 10:30:28;;;;;;;5.83;3.80;;;30.40;1.00;;;;;;5081934;28;20890;-64
2023/04/10 10:32:55;;;;;;;6.20;3.80;;;29.40;1.00;;;;;;5084076;28;20480;-64
2023/04/10 10:35:21;;;;;;;5.90;3.50;;;28.70;1.00;;;;;;5080545;28;20984;-65
2023/04/10 10:37:48;;;;;;;5.10;2.93;;;28.40;1.00;;;;;;5076600;28;20456;-64
2023/04/10 10:40:20;;;;;;;5.40;3.20;;;28.20;1.00;;;;;;5078571;28;20472;-65
2023/04/10 10:42:55;;;;;;;6.10;3.90;;;27.60;1.00;;;;;;5077176;28;20499;-65
2023/04/10 10:45:30;;;;;;;6.13;3.00;;;27.10;1.00;;;;;;5079422;28;20979;-64
2023/04/10 10:47:57;;;;;;;6.03;3.40;;;26.40;1.00;;;;;;5081950;28;20491;-64
2023/04/10 10:50:24;;;;;;;5.70;3.57;;;25.90;1.00;;;;;;5081130;28;20465;-66
2023/04/10 10:52:52;;;;;;;5.70;3.40;;;25.20;1.00;;;;;;5081621;28;20487;-67
2023/04/10 10:55:30;;;;;;;5.70;3.17;;;24.90;1.00;;;;;;5081427;28;20471;-67
2023/04/10 10:57:58;;;;;;;4.97;2.90;;;24.70;1.00;;;;;;5085675;28;20849;-68
2023/04/10 11:00:47;;;;;;;5.13;2.77;;;24.40;1.00;;;;;;5075671;28;20496;-65
2023/04/10 11:03:29;;;;;;;4.80;2.47;;;24.20;1.00;;;;;;5065345;28;20488;-66
2023/04/10 11:05:58;;;;;;;5.00;2.53;;;23.70;1.00;;;;;;5053860;28;21001;-65
2023/04/10 11:08:43;;;;;;;4.40;1.87;;;22.90;1.00;;;;;;5069339;28;20549;-65
2023/04/10 11:11:14;;;;;;;4.93;2.33;;;22.30;1.00;;;;;;5062768;28;20473;-66
2023/04/10 11:13:42;;;;;;;4.50;2.10;;;21.90;1.00;;;;;;5063508;28;20476;-65
2023/04/10 11:16:10;;;;;;;5.10;2.60;;;21.60;1.00;;;;;;5060616;28;20461;-65
2023/04/10 11:19:03;;;;;;;5.03;2.60;;;21.30;1.00;;;;;;5056614;28;20462;-65
2023/04/10 11:21:31;;;;;;;4.90;2.30;;;21.00;1.00;;;;;;5060762;28;20531;-65
2023/04/10 11:24:05;;;;;;;5.80;2.43;;;20.70;1.00;;;;;;5063880;28;20512;-67
2023/04/10 11:26:40;;;;;;;4.37;1.90;;;20.40;1.00;;;;;;5058342;28;20562;-65
2023/04/10 11:29:30;;;;;;;4.40;2.20;;;20.20;1.00;;;;;;5069168;28;20461;-66
2023/04/10 11:31:59;;;;;;;4.87;2.37;;;20.00;1.00;;;;;;5068792;28;20492;-67
2023/04/10 11:34:27;;;;;;;4.50;1.93;;;19.70;1.00;;;;;;5056176;28;20467;-65
2023/04/10 11:36:54;;;;;;;4.53;1.93;;;19.70;1.00;;;;;;5063018;28;20536;-65
2023/04/10 11:39:21;;;;;;;4.27;1.53;;;19.60;1.00;;;;;;5067070;28;20476;-67
2023/04/10 11:41:50;;;;;;;4.70;2.17;;;19.40;1.00;;;;;;5064552;28;20489;-66
2023/04/10 11:44:19;;;;;;;4.20;1.67;;;19.10;1.00;;;;;;5070683;28;20488;-65
2023/04/10 11:46:49;;;;;;;4.73;1.70;;;19.10;1.00;;;;;;5056271;28;20476;-65
2023/04/10 11:49:20;;;;;;;4.87;1.70;;;19.00;1.00;;;;;;5056963;28;20550;-65
2023/04/10 11:51:49;;;;;;;4.13;1.73;;;18.90;1.00;;;;;;5070158;28;21012;-65
2023/04/10 11:54:17;;;;;;;4.33;1.80;;;18.90;1.00;;;;;;5060707;28;20466;-65
2023/04/10 11:56:46;;;;;;;4.47;1.93;;;18.90;1.00;;;;;;5060881;28;20503;-65
2023/04/10 11:59:14;;;;;;;4.33;1.67;;;18.80;1.00;;;;;;5062292;28;20487;-64
2023/04/10 12:01:41;;;;;;;4.30;1.87;;;18.70;1.00;;;;;;5072213;28;21136;-66
2023/04/10 12:04:14;;;;;;;4.30;1.60;;;18.80;1.00;;;;;;5060581;28;20498;-66
2023/04/10 12:06:45;;;;;;;4.10;1.77;;;18.80;1.00;;;;;;5062682;28;21064;-66
2023/04/10 12:09:17;;;;;;;4.33;1.90;;;18.60;1.00;;;;;;5055213;28;20464;-65
2023/04/10 12:11:50;;;;;;;4.33;1.53;;;18.40;1.00;;;;;;5057426;28;20492;-65
2023/04/10 12:14:17;;;;;;;6.40;1.67;;;18.50;1.00;;;;;;5063744;28;20861;-65
2023/04/10 12:16:45;;;;;;;4.97;2.17;;;18.40;1.00;;;;;;5060106;28;20543;-65
2023/04/10 12:19:13;;;;;;;5.07;1.73;;;18.20;1.00;;;;;;5069810;28;20492;-66
2023/04/10 12:21:41;;;;;;;5.90;1.80;;;18.00;1.00;;;;;;5060486;28;21049;-65
2023/04/10 12:24:09;;;;;;;4.57;1.80;;;17.90;1.00;;;;;;5062658;28;20846;-65
2023/04/10 12:26:36;;;;;;;4.50;1.90;;;17.90;1.00;;;;;;5058701;28;20991;-65
2023/04/10 12:29:05;;;;;;;3.90;1.50;;;17.90;1.00;;;;;;5061290;28;20705;-65
2023/04/10 12:31:34;;;;;;;4.03;1.43;;;17.90;1.00;;;;;;5069195;28;20533;-65
2023/04/10 12:34:02;;;;;;;4.17;1.60;;;17.70;1.00;;;;;;5069074;28;20463;-65
2023/04/10 12:36:30;;;;;;;4.17;1.17;;;17.60;1.00;;;;;;5061815;28;20465;-66
2023/04/10 12:38:58;;;;;;;4.27;1.80;;;17.70;1.00;;;;;;5064889;28;20993;-65
2023/04/10 12:41:28;;;;;;;4.00;1.50;;;17.70;1.00;;;;;;5062831;28;20484;-65
2023/04/10 12:44:07;;;;;;;4.03;1.53;;;17.80;1.00;;;;;;5066648;28;20845;-65
2023/04/10 12:46:35;;;;;;;4.43;1.70;;;17.70;1.00;;;;;;5059454;28;20499;-65
2023/04/10 12:49:10;;;;;;;4.27;1.60;;;17.60;1.00;;;;;;5063043;28;20460;-65
2023/04/10 12:51:47;;;;;;;4.20;1.50;;;17.60;1.00;;;;;;5061636;28;20487;-65
2023/04/10 12:54:28;;;;;;;4.40;1.63;;;17.60;1.00;;;;;;5066057;28;20455;-65
2023/04/10 12:56:56;;;;;;;4.80;1.70;;;17.50;1.00;;;;;;5054439;28;20493;-65